Plainview, Minnesota
Current Conditions -  °F | °C
As of 11:34 AM on Friday 19 Dec 2014 (Local Time) from K9MN Reporting Station
Overcast Overcast  
Wind Chill: 20°   Ceiling: 2100
Heat Index: 26°   Visibility: 10mi
Dew Point: 19°   Wind: 6mph
Humidity: 74%   Direction: 130°SE
Pressure: 30.24"   Gusts: NA
Location:  44.16°N, 92.17°W
Report Text: K9MN 191734Z AUTO 13005KT 10SM OVC021 M03/M07 A3024 RMK AO1 T10321072
Loading
Personal Weather Stations






























Interactive Weather Map New forecast layout! Learn more

10-Day Weather Forecast

Advertisements
Track Severe Weather on mobile